sensor_id;sensor_type;location;lat;lon;timestamp;temperature;humidity
63051;SHT30;49136;47.416;19.402;2023-05-07T00:01:48;14.55;96.59
63051;SHT30;49136;47.416;19.402;2023-05-07T00:04:13;14.44;95.25
63051;SHT30;49136;47.416;19.402;2023-05-07T00:06:39;14.41;95.61
63051;SHT30;49136;47.416;19.402;2023-05-07T00:09:05;14.34;94.76
63051;SHT30;49136;47.416;19.402;2023-05-07T00:11:31;14.31;96.46
63051;SHT30;49136;47.416;19.402;2023-05-07T00:13:56;14.25;96.34
63051;SHT30;49136;47.416;19.402;2023-05-07T00:16:22;14.21;97.87
63051;SHT30;49136;47.416;19.402;2023-05-07T00:18:47;14.21;97.89
63051;SHT30;49136;47.416;19.402;2023-05-07T00:21:13;14.16;97.85
63051;SHT30;49136;47.416;19.402;2023-05-07T00:23:38;14.21;98.08
63051;SHT30;49136;47.416;19.402;2023-05-07T00:26:04;14.17;98.12
63051;SHT30;49136;47.416;19.402;2023-05-07T00:28:29;14.20;97.91
63051;SHT30;49136;47.416;19.402;2023-05-07T00:30:55;14.13;96.91
63051;SHT30;49136;47.416;19.402;2023-05-07T00:33:21;14.14;96.38
63051;SHT30;49136;47.416;19.402;2023-05-07T00:35:47;14.09;97.53
63051;SHT30;49136;47.416;19.402;2023-05-07T00:38:13;14.09;97.58
63051;SHT30;49136;47.416;19.402;2023-05-07T00:40:38;14.05;96.20
63051;SHT30;49136;47.416;19.402;2023-05-07T00:43:04;14.07;97.44
63051;SHT30;49136;47.416;19.402;2023-05-07T00:45:29;14.03;97.73
63051;SHT30;49136;47.416;19.402;2023-05-07T00:47:57;14.07;97.82
63051;SHT30;49136;47.416;19.402;2023-05-07T00:50:23;14.02;98.43
63051;SHT30;49136;47.416;19.402;2023-05-07T00:52:49;13.99;98.30
63051;SHT30;49136;47.416;19.402;2023-05-07T00:55:14;13.96;97.68
63051;SHT30;49136;47.416;19.402;2023-05-07T00:57:40;13.99;98.97
63051;SHT30;49136;47.416;19.402;2023-05-07T01:00:08;14.09;98.13
63051;SHT30;49136;47.416;19.402;2023-05-07T01:02:35;14.00;97.20
63051;SHT30;49136;47.416;19.402;2023-05-07T01:05:01;13.97;97.80
63051;SHT30;49136;47.416;19.402;2023-05-07T01:07:28;13.99;97.76
63051;SHT30;49136;47.416;19.402;2023-05-07T01:09:54;13.91;97.58
63051;SHT30;49136;47.416;19.402;2023-05-07T01:12:20;13.85;98.77
63051;SHT30;49136;47.416;19.402;2023-05-07T01:14:46;13.75;98.64
63051;SHT30;49136;47.416;19.402;2023-05-07T01:17:14;13.65;98.11
63051;SHT30;49136;47.416;19.402;2023-05-07T01:19:39;13.59;98.71
63051;SHT30;49136;47.416;19.402;2023-05-07T01:22:09;13.51;99.72
63051;SHT30;49136;47.416;19.402;2023-05-07T01:24:36;13.38;99.99
63051;SHT30;49136;47.416;19.402;2023-05-07T01:27:02;13.24;99.76
63051;SHT30;49136;47.416;19.402;2023-05-07T01:29:28;13.14;99.99
63051;SHT30;49136;47.416;19.402;2023-05-07T01:31:55;13.02;99.45
63051;SHT30;49136;47.416;19.402;2023-05-07T01:34:21;12.97;99.99
63051;SHT30;49136;47.416;19.402;2023-05-07T01:36:47;12.85;99.95
63051;SHT30;49136;47.416;19.402;2023-05-07T01:39:14;12.77;99.34
63051;SHT30;49136;47.416;19.402;2023-05-07T01:41:41;12.81;99.99
63051;SHT30;49136;47.416;19.402;2023-05-07T01:44:07;12.77;99.82
63051;SHT30;49136;47.416;19.402;2023-05-07T01:46:34;12.78;99.66
63051;SHT30;49136;47.416;19.402;2023-05-07T01:48:59;12.72;99.99
63051;SHT30;49136;47.416;19.402;2023-05-07T01:51:25;12.74;99.99
63051;SHT30;49136;47.416;19.402;2023-05-07T01:53:52;12.72;99.99
63051;SHT30;49136;47.416;19.402;2023-05-07T01:56:18;12.69;99.99
63051;SHT30;49136;47.416;19.402;2023-05-07T01:58:45;12.65;99.99
63051;SHT30;49136;47.416;19.402;2023-05-07T02:01:13;12.68;99.99
63051;SHT30;49136;47.416;19.402;2023-05-07T02:03:38;12.65;99.99
63051;SHT30;49136;47.416;19.402;2023-05-07T02:06:03;12.60;99.56
63051;SHT30;49136;47.416;19.402;2023-05-07T02:08:29;12.57;99.99
63051;SHT30;49136;47.416;19.402;2023-05-07T02:10:55;12.50;99.99
63051;SHT30;49136;47.416;19.402;2023-05-07T02:13:20;12.57;99.99
63051;SHT30;49136;47.416;19.402;2023-05-07T02:15:47;12.47;99.99
63051;SHT30;49136;47.416;19.402;2023-05-07T02:18:16;12.40;99.99
63051;SHT30;49136;47.416;19.402;2023-05-07T02:20:42;12.32;99.99
63051;SHT30;49136;47.416;19.402;2023-05-07T02:23:07;12.23;99.99
63051;SHT30;49136;47.416;19.402;2023-05-07T02:25:33;12.13;99.99
63051;SHT30;49136;47.416;19.402;2023-05-07T02:27:58;12.09;99.99
63051;SHT30;49136;47.416;19.402;2023-05-07T02:30:24;12.08;99.99
63051;SHT30;49136;47.416;19.402;2023-05-07T02:32:50;12.03;99.99
63051;SHT30;49136;47.416;19.402;2023-05-07T02:35:15;11.95;99.99
63051;SHT30;49136;47.416;19.402;2023-05-07T02:37:41;11.89;99.99
63051;SHT30;49136;47.416;19.402;2023-05-07T02:40:07;11.86;99.99
63051;SHT30;49136;47.416;19.402;2023-05-07T02:42:32;11.78;99.99
63051;SHT30;49136;47.416;19.402;2023-05-07T02:44:58;11.66;99.99
63051;SHT30;49136;47.416;19.402;2023-05-07T02:47:24;11.64;99.99
63051;SHT30;49136;47.416;19.402;2023-05-07T02:49:53;11.60;99.99
63051;SHT30;49136;47.416;19.402;2023-05-07T02:52:18;11.50;99.99
63051;SHT30;49136;47.416;19.402;2023-05-07T02:54:43;11.47;99.99
63051;SHT30;49136;47.416;19.402;2023-05-07T02:57:09;11.44;99.99
63051;SHT30;49136;47.416;19.402;2023-05-07T02:59:34;11.43;99.99
63051;SHT30;49136;47.416;19.402;2023-05-07T03:02:00;11.33;99.99
63051;SHT30;49136;47.416;19.402;2023-05-07T03:04:25;11.32;99.99
63051;SHT30;49136;47.416;19.402;2023-05-07T03:06:50;11.34;99.99
63051;SHT30;49136;47.416;19.402;2023-05-07T03:09:16;11.39;99.99
63051;SHT30;49136;47.416;19.402;2023-05-07T03:11:42;11.36;99.99
63051;SHT30;49136;47.416;19.402;2023-05-07T03:14:07;11.34;99.99
63051;SHT30;49136;47.416;19.402;2023-05-07T03:16:32;11.42;99.99
63051;SHT30;49136;47.416;19.402;2023-05-07T03:18:58;11.33;99.99
63051;SHT30;49136;47.416;19.402;2023-05-07T03:21:24;11.32;99.99
63051;SHT30;49136;47.416;19.402;2023-05-07T03:23:49;11.30;99.99
63051;SHT30;49136;47.416;19.402;2023-05-07T03:26:14;11.29;99.99
63051;SHT30;49136;47.416;19.402;2023-05-07T03:28:40;11.27;99.99
63051;SHT30;49136;47.416;19.402;2023-05-07T03:31:05;11.27;99.99
63051;SHT30;49136;47.416;19.402;2023-05-07T03:33:33;11.29;99.99
63051;SHT30;49136;47.416;19.402;2023-05-07T03:35:59;11.30;99.99
63051;SHT30;49136;47.416;19.402;2023-05-07T03:38:25;11.32;99.99
63051;SHT30;49136;47.416;19.402;2023-05-07T03:40:50;11.37;99.99
63051;SHT30;49136;47.416;19.402;2023-05-07T03:43:16;11.39;99.99
63051;SHT30;49136;47.416;19.402;2023-05-07T03:45:42;11.50;99.99
63051;SHT30;49136;47.416;19.402;2023-05-07T03:48:07;11.59;99.99
63051;SHT30;49136;47.416;19.402;2023-05-07T03:50:33;11.67;99.99
63051;SHT30;49136;47.416;19.402;2023-05-07T03:52:58;11.73;99.99
63051;SHT30;49136;47.416;19.402;2023-05-07T03:55:23;11.74;99.99
63051;SHT30;49136;47.416;19.402;2023-05-07T03:57:49;11.73;99.99
63051;SHT30;49136;47.416;19.402;2023-05-07T04:00:15;11.78;99.66
63051;SHT30;49136;47.416;19.402;2023-05-07T04:02:40;11.89;99.99
63051;SHT30;49136;47.416;19.402;2023-05-07T04:05:06;11.95;99.99
63051;SHT30;49136;47.416;19.402;2023-05-07T04:07:31;12.09;99.99
63051;SHT30;49136;47.416;19.402;2023-05-07T04:09:56;12.22;99.99
63051;SHT30;49136;47.416;19.402;2023-05-07T04:12:22;12.36;99.94
63051;SHT30;49136;47.416;19.402;2023-05-07T04:14:47;12.55;99.33
63051;SHT30;49136;47.416;19.402;2023-05-07T04:17:13;12.74;98.75
63051;SHT30;49136;47.416;19.402;2023-05-07T04:19:38;12.89;98.57
63051;SHT30;49136;47.416;19.402;2023-05-07T04:22:04;13.02;98.29
63051;SHT30;49136;47.416;19.402;2023-05-07T04:24:32;13.16;98.33
63051;SHT30;49136;47.416;19.402;2023-05-07T04:27:00;13.30;98.61
63051;SHT30;49136;47.416;19.402;2023-05-07T04:29:26;13.41;98.57
63051;SHT30;49136;47.416;19.402;2023-05-07T04:31:52;13.53;98.56
63051;SHT30;49136;47.416;19.402;2023-05-07T04:34:17;13.59;98.59
63051;SHT30;49136;47.416;19.402;2023-05-07T04:36:43;13.69;98.55
63051;SHT30;49136;47.416;19.402;2023-05-07T04:39:08;13.79;98.55
63051;SHT30;49136;47.416;19.402;2023-05-07T04:41:36;13.87;98.60
63051;SHT30;49136;47.416;19.402;2023-05-07T04:44:01;13.90;98.62
63051;SHT30;49136;47.416;19.402;2023-05-07T04:46:30;13.91;98.47
63051;SHT30;49136;47.416;19.402;2023-05-07T04:48:55;13.95;98.63
63051;SHT30;49136;47.416;19.402;2023-05-07T04:51:21;13.97;98.26
63051;SHT30;49136;47.416;19.402;2023-05-07T04:53:47;14.03;97.37
63051;SHT30;49136;47.416;19.402;2023-05-07T04:56:12;14.13;97.25
63051;SHT30;49136;47.416;19.402;2023-05-07T04:58:38;14.37;97.15
63051;SHT30;49136;47.416;19.402;2023-05-07T05:01:03;14.56;96.77
63051;SHT30;49136;47.416;19.402;2023-05-07T05:03:29;14.76;95.94
63051;SHT30;49136;47.416;19.402;2023-05-07T05:05:55;14.87;96.29
63051;SHT30;49136;47.416;19.402;2023-05-07T05:08:22;15.08;96.13
63051;SHT30;49136;47.416;19.402;2023-05-07T05:10:47;15.30;95.74
63051;SHT30;49136;47.416;19.402;2023-05-07T05:13:14;15.34;95.58
63051;SHT30;49136;47.416;19.402;2023-05-07T05:15:40;15.34;95.46
63051;SHT30;49136;47.416;19.402;2023-05-07T05:18:05;15.43;95.88
63051;SHT30;49136;47.416;19.402;2023-05-07T05:20:31;15.58;95.76
63051;SHT30;49136;47.416;19.402;2023-05-07T05:22:57;15.82;94.16
63051;SHT30;49136;47.416;19.402;2023-05-07T05:25:22;16.11;93.81
63051;SHT30;49136;47.416;19.402;2023-05-07T05:27:47;16.43;92.81
63051;SHT30;49136;47.416;19.402;2023-05-07T05:30:13;17.00;92.19
63051;SHT30;49136;47.416;19.402;2023-05-07T05:32:39;17.18;89.31
63051;SHT30;49136;47.416;19.402;2023-05-07T05:35:04;17.30;89.35
63051;SHT30;49136;47.416;19.402;2023-05-07T05:37:30;17.33;88.94
63051;SHT30;49136;47.416;19.402;2023-05-07T05:39:56;17.60;89.19
63051;SHT30;49136;47.416;19.402;2023-05-07T05:42:22;17.77;86.89
63051;SHT30;49136;47.416;19.402;2023-05-07T05:44:47;17.50;86.33
63051;SHT30;49136;47.416;19.402;2023-05-07T05:47:13;17.61;87.25
63051;SHT30;49136;47.416;19.402;2023-05-07T05:49:38;17.75;88.48
63051;SHT30;49136;47.416;19.402;2023-05-07T05:52:04;17.61;87.08
63051;SHT30;49136;47.416;19.402;2023-05-07T05:54:29;17.77;86.39
63051;SHT30;49136;47.416;19.402;2023-05-07T05:56:55;18.17;84.12
63051;SHT30;49136;47.416;19.402;2023-05-07T05:59:21;18.81;83.53
63051;SHT30;49136;47.416;19.402;2023-05-07T06:01:46;19.19;82.11
63051;SHT30;49136;47.416;19.402;2023-05-07T06:04:12;19.76;82.72
63051;SHT30;49136;47.416;19.402;2023-05-07T06:06:37;19.93;80.97
63051;SHT30;49136;47.416;19.402;2023-05-07T06:09:02;19.94;80.66
63051;SHT30;49136;47.416;19.402;2023-05-07T06:11:28;19.50;81.46
63051;SHT30;49136;47.416;19.402;2023-05-07T06:13:53;19.43;80.99
63051;SHT30;49136;47.416;19.402;2023-05-07T06:16:19;19.54;78.80
63051;SHT30;49136;47.416;19.402;2023-05-07T06:18:45;19.27;80.07
63051;SHT30;49136;47.416;19.402;2023-05-07T06:21:13;19.76;78.68
63051;SHT30;49136;47.416;19.402;2023-05-07T06:23:38;20.12;77.62
63051;SHT30;49136;47.416;19.402;2023-05-07T06:26:06;20.55;77.50
63051;SHT30;49136;47.416;19.402;2023-05-07T06:28:31;20.48;76.53
63051;SHT30;49136;47.416;19.402;2023-05-07T06:31:18;20.31;75.55
63051;SHT30;49136;47.416;19.402;2023-05-07T06:33:48;20.72;75.28
63051;SHT30;49136;47.416;19.402;2023-05-07T06:36:13;20.97;75.39
63051;SHT30;49136;47.416;19.402;2023-05-07T06:38:39;20.65;74.53
63051;SHT30;49136;47.416;19.402;2023-05-07T06:41:05;21.25;74.70
63051;SHT30;49136;47.416;19.402;2023-05-07T06:43:31;21.63;73.50
63051;SHT30;49136;47.416;19.402;2023-05-07T06:45:57;22.08;74.00
63051;SHT30;49136;47.416;19.402;2023-05-07T06:48:22;22.14;70.60
63051;SHT30;49136;47.416;19.402;2023-05-07T06:50:49;21.39;71.56
63051;SHT30;49136;47.416;19.402;2023-05-07T06:53:15;22.22;71.68
63051;SHT30;49136;47.416;19.402;2023-05-07T06:55:40;22.49;71.97
63051;SHT30;49136;47.416;19.402;2023-05-07T06:58:06;22.62;67.87
63051;SHT30;49136;47.416;19.402;2023-05-07T07:00:32;22.90;66.41
63051;SHT30;49136;47.416;19.402;2023-05-07T07:02:58;23.03;67.45
63051;SHT30;49136;47.416;19.402;2023-05-07T07:05:24;23.01;68.98
63051;SHT30;49136;47.416;19.402;2023-05-07T07:07:50;23.15;67.00
63051;SHT30;49136;47.416;19.402;2023-05-07T07:10:21;23.33;68.22
63051;SHT30;49136;47.416;19.402;2023-05-07T07:12:47;23.33;65.49
63051;SHT30;49136;47.416;19.402;2023-05-07T07:15:13;23.35;65.60
63051;SHT30;49136;47.416;19.402;2023-05-07T07:17:39;23.05;63.63
63051;SHT30;49136;47.416;19.402;2023-05-07T07:20:05;23.07;66.74
63051;SHT30;49136;47.416;19.402;2023-05-07T07:22:30;23.28;64.10
63051;SHT30;49136;47.416;19.402;2023-05-07T07:24:56;23.15;63.96
63051;SHT30;49136;47.416;19.402;2023-05-07T07:27:21;23.25;65.41
63051;SHT30;49136;47.416;19.402;2023-05-07T07:29:47;23.42;65.91
63051;SHT30;49136;47.416;19.402;2023-05-07T07:32:12;23.56;64.29
63051;SHT30;49136;47.416;19.402;2023-05-07T07:34:38;23.80;64.37
63051;SHT30;49136;47.416;19.402;2023-05-07T07:37:03;23.88;65.73
63051;SHT30;49136;47.416;19.402;2023-05-07T07:39:34;23.66;62.55
63051;SHT30;49136;47.416;19.402;2023-05-07T07:42:00;23.46;63.55
63051;SHT30;49136;47.416;19.402;2023-05-07T07:44:27;23.42;61.33
63051;SHT30;49136;47.416;19.402;2023-05-07T07:46:53;23.81;60.62
63051;SHT30;49136;47.416;19.402;2023-05-07T07:49:18;24.52;61.73
63051;SHT30;49136;47.416;19.402;2023-05-07T07:51:44;24.68;61.00
63051;SHT30;49136;47.416;19.402;2023-05-07T07:54:10;22.93;61.34
63051;SHT30;49136;47.416;19.402;2023-05-07T07:56:35;23.42;61.00
63051;SHT30;49136;47.416;19.402;2023-05-07T07:59:01;23.71;62.67
63051;SHT30;49136;47.416;19.402;2023-05-07T08:01:26;23.90;62.86
63051;SHT30;49136;47.416;19.402;2023-05-07T08:03:52;24.33;62.77
63051;SHT30;49136;47.416;19.402;2023-05-07T08:06:18;23.81;62.53
63051;SHT30;49136;47.416;19.402;2023-05-07T08:08:43;23.63;62.67
63051;SHT30;49136;47.416;19.402;2023-05-07T08:11:09;23.71;63.15
63051;SHT30;49136;47.416;19.402;2023-05-07T08:13:35;23.85;62.76
63051;SHT30;49136;47.416;19.402;2023-05-07T08:16:01;24.30;60.81
63051;SHT30;49136;47.416;19.402;2023-05-07T08:18:26;24.25;61.00
63051;SHT30;49136;47.416;19.402;2023-05-07T08:20:54;24.30;60.00
63051;SHT30;49136;47.416;19.402;2023-05-07T08:23:19;24.81;60.58
63051;SHT30;49136;47.416;19.402;2023-05-07T08:25:45;24.96;59.18
63051;SHT30;49136;47.416;19.402;2023-05-07T08:28:11;24.96;61.10
63051;SHT30;49136;47.416;19.402;2023-05-07T08:30:36;24.71;60.17
63051;SHT30;49136;47.416;19.402;2023-05-07T08:33:02;24.55;62.43
63051;SHT30;49136;47.416;19.402;2023-05-07T08:35:27;23.67;64.13
63051;SHT30;49136;47.416;19.402;2023-05-07T08:37:53;23.84;63.47
63051;SHT30;49136;47.416;19.402;2023-05-07T08:40:18;23.90;63.10
63051;SHT30;49136;47.416;19.402;2023-05-07T08:42:44;23.96;62.98
63051;SHT30;49136;47.416;19.402;2023-05-07T08:45:11;23.97;63.15
63051;SHT30;49136;47.416;19.402;2023-05-07T08:47:44;23.67;62.46
63051;SHT30;49136;47.416;19.402;2023-05-07T08:50:11;23.41;65.26
63051;SHT30;49136;47.416;19.402;2023-05-07T08:52:37;22.91;64.84
63051;SHT30;49136;47.416;19.402;2023-05-07T08:55:03;22.63;65.95
63051;SHT30;49136;47.416;19.402;2023-05-07T08:57:28;22.60;65.76
63051;SHT30;49136;47.416;19.402;2023-05-07T08:59:54;22.45;66.76
63051;SHT30;49136;47.416;19.402;2023-05-07T09:02:19;22.38;66.14
63051;SHT30;49136;47.416;19.402;2023-05-07T09:04:45;22.32;66.67
63051;SHT30;49136;47.416;19.402;2023-05-07T09:07:10;22.24;67.76
63051;SHT30;49136;47.416;19.402;2023-05-07T09:09:36;22.32;65.54
63051;SHT30;49136;47.416;19.402;2023-05-07T09:12:02;22.48;65.44
63051;SHT30;49136;47.416;19.402;2023-05-07T09:14:29;22.62;65.08
63051;SHT30;49136;47.416;19.402;2023-05-07T09:16:56;22.81;65.48
63051;SHT30;49136;47.416;19.402;2023-05-07T09:19:26;23.01;65.98
63051;SHT30;49136;47.416;19.402;2023-05-07T09:21:59;23.29;66.34
63051;SHT30;49136;47.416;19.402;2023-05-07T09:24:25;23.55;65.45
63051;SHT30;49136;47.416;19.402;2023-05-07T09:26:50;23.75;66.21
63051;SHT30;49136;47.416;19.402;2023-05-07T09:29:16;24.05;65.34
63051;SHT30;49136;47.416;19.402;2023-05-07T09:31:42;24.06;65.49
63051;SHT30;49136;47.416;19.402;2023-05-07T09:34:08;24.21;64.14
63051;SHT30;49136;47.416;19.402;2023-05-07T09:36:33;24.08;63.68
63051;SHT30;49136;47.416;19.402;2023-05-07T09:39:00;24.19;64.70
63051;SHT30;49136;47.416;19.402;2023-05-07T09:41:26;24.61;63.91
63051;SHT30;49136;47.416;19.402;2023-05-07T09:43:55;25.27;61.52
63051;SHT30;49136;47.416;19.402;2023-05-07T09:46:25;25.19;61.38
63051;SHT30;49136;47.416;19.402;2023-05-07T09:48:56;25.41;61.02
63051;SHT30;49136;47.416;19.402;2023-05-07T09:51:25;25.74;61.18
63051;SHT30;49136;47.416;19.402;2023-05-07T09:53:54;25.37;60.95
63051;SHT30;49136;47.416;19.402;2023-05-07T09:56:19;24.99;60.97
63051;SHT30;49136;47.416;19.402;2023-05-07T09:58:46;25.18;62.45
63051;SHT30;49136;47.416;19.402;2023-05-07T10:01:12;25.54;58.89
63051;SHT30;49136;47.416;19.402;2023-05-07T10:03:40;25.93;57.69
63051;SHT30;49136;47.416;19.402;2023-05-07T10:06:08;25.99;56.75
63051;SHT30;49136;47.416;19.402;2023-05-07T10:08:35;26.34;57.75
63051;SHT30;49136;47.416;19.402;2023-05-07T10:11:01;26.29;58.34
63051;SHT30;49136;47.416;19.402;2023-05-07T10:13:27;26.84;58.43
63051;SHT30;49136;47.416;19.402;2023-05-07T10:15:53;27.48;55.94
63051;SHT30;49136;47.416;19.402;2023-05-07T10:18:20;27.44;54.38
63051;SHT30;49136;47.416;19.402;2023-05-07T10:20:51;27.29;56.27
63051;SHT30;49136;47.416;19.402;2023-05-07T10:23:23;27.55;55.49
63051;SHT30;49136;47.416;19.402;2023-05-07T10:25:49;27.34;55.18
63051;SHT30;49136;47.416;19.402;2023-05-07T10:28:15;27.19;56.91
63051;SHT30;49136;47.416;19.402;2023-05-07T10:33:22;26.12;57.43
63051;SHT30;49136;47.416;19.402;2023-05-07T10:35:48;25.66;57.97
63051;SHT30;49136;47.416;19.402;2023-05-07T10:38:14;25.46;57.80
63051;SHT30;49136;47.416;19.402;2023-05-07T10:40:39;25.14;58.84
63051;SHT30;49136;47.416;19.402;2023-05-07T10:43:06;24.90;60.71
63051;SHT30;49136;47.416;19.402;2023-05-07T10:45:32;24.59;60.27
63051;SHT30;49136;47.416;19.402;2023-05-07T10:48:11;24.50;60.62
63051;SHT30;49136;47.416;19.402;2023-05-07T10:50:39;24.47;60.49
63051;SHT30;49136;47.416;19.402;2023-05-07T10:55:51;24.09;60.97
63051;SHT30;49136;47.416;19.402;2023-05-07T10:58:29;23.90;60.87
63051;SHT30;49136;47.416;19.402;2023-05-07T11:01:01;23.71;61.68
63051;SHT30;49136;47.416;19.402;2023-05-07T11:03:28;23.70;61.71
63051;SHT30;49136;47.416;19.402;2023-05-07T11:06:13;23.49;62.79
63051;SHT30;49136;47.416;19.402;2023-05-07T11:08:55;23.45;63.64
63051;SHT30;49136;47.416;19.402;2023-05-07T11:11:47;23.57;63.42
63051;SHT30;49136;47.416;19.402;2023-05-07T11:14:14;23.96;62.56
63051;SHT30;49136;47.416;19.402;2023-05-07T11:16:40;24.40;61.59
63051;SHT30;49136;47.416;19.402;2023-05-07T11:19:06;24.81;61.41
63051;SHT30;49136;47.416;19.402;2023-05-07T11:21:36;25.09;60.60
63051;SHT30;49136;47.416;19.402;2023-05-07T11:24:03;25.47;60.35
63051;SHT30;49136;47.416;19.402;2023-05-07T11:26:31;25.80;60.04
63051;SHT30;49136;47.416;19.402;2023-05-07T11:29:11;25.92;58.77
63051;SHT30;49136;47.416;19.402;2023-05-07T11:31:37;26.16;58.44
63051;SHT30;49136;47.416;19.402;2023-05-07T11:34:02;26.54;58.69
63051;SHT30;49136;47.416;19.402;2023-05-07T11:36:31;27.14;58.40
63051;SHT30;49136;47.416;19.402;2023-05-07T11:38:59;27.61;57.87
63051;SHT30;49136;47.416;19.402;2023-05-07T11:41:35;27.51;56.49
63051;SHT30;49136;47.416;19.402;2023-05-07T11:44:02;28.09;56.14
63051;SHT30;49136;47.416;19.402;2023-05-07T11:46:28;27.95;54.77
63051;SHT30;49136;47.416;19.402;2023-05-07T11:48:54;28.22;54.93
63051;SHT30;49136;47.416;19.402;2023-05-07T11:51:24;28.16;54.32
63051;SHT30;49136;47.416;19.402;2023-05-07T11:53:51;28.36;53.93
63051;SHT30;49136;47.416;19.402;2023-05-07T11:56:18;27.99;53.46
63051;SHT30;49136;47.416;19.402;2023-05-07T11:58:45;27.81;55.63
63051;SHT30;49136;47.416;19.402;2023-05-07T12:01:12;28.33;51.69
63051;SHT30;49136;47.416;19.402;2023-05-07T12:03:41;28.83;51.54
63051;SHT30;49136;47.416;19.402;2023-05-07T12:06:15;28.33;51.83
63051;SHT30;49136;47.416;19.402;2023-05-07T12:08:41;28.07;53.22
63051;SHT30;49136;47.416;19.402;2023-05-07T12:11:08;27.26;53.41
63051;SHT30;49136;47.416;19.402;2023-05-07T12:13:34;26.91;54.87
63051;SHT30;49136;47.416;19.402;2023-05-07T12:16:00;26.72;54.35
63051;SHT30;49136;47.416;19.402;2023-05-07T12:18:28;25.54;55.36
63051;SHT30;49136;47.416;19.402;2023-05-07T12:20:55;25.67;57.61
63051;SHT30;49136;47.416;19.402;2023-05-07T12:23:21;26.16;55.67
63051;SHT30;49136;47.416;19.402;2023-05-07T12:25:47;26.19;56.20
63051;SHT30;49136;47.416;19.402;2023-05-07T12:28:13;25.93;55.99
63051;SHT30;49136;47.416;19.402;2023-05-07T12:30:42;24.80;57.00
63051;SHT30;49136;47.416;19.402;2023-05-07T12:33:07;25.89;57.80
63051;SHT30;49136;47.416;19.402;2023-05-07T12:35:39;24.94;56.54
63051;SHT30;49136;47.416;19.402;2023-05-07T12:38:14;24.47;59.73
63051;SHT30;49136;47.416;19.402;2023-05-07T12:40:43;25.30;57.73
63051;SHT30;49136;47.416;19.402;2023-05-07T12:43:25;25.54;59.43
63051;SHT30;49136;47.416;19.402;2023-05-07T12:45:56;25.80;58.32
63051;SHT30;49136;47.416;19.402;2023-05-07T12:48:22;24.64;56.39
63051;SHT30;49136;47.416;19.402;2023-05-07T12:50:52;24.78;57.94
63051;SHT30;49136;47.416;19.402;2023-05-07T12:53:20;25.18;57.17
63051;SHT30;49136;47.416;19.402;2023-05-07T12:55:48;24.53;56.34
63051;SHT30;49136;47.416;19.402;2023-05-07T12:58:18;23.96;60.64
63051;SHT30;49136;47.416;19.402;2023-05-07T13:00:45;22.63;70.09
63051;SHT30;49136;47.416;19.402;2023-05-07T13:03:12;21.79;73.95
63051;SHT30;49136;47.416;19.402;2023-05-07T13:05:45;21.04;71.79
63051;SHT30;49136;47.416;19.402;2023-05-07T13:08:10;20.77;69.98
63051;SHT30;49136;47.416;19.402;2023-05-07T13:10:36;20.76;74.35
63051;SHT30;49136;47.416;19.402;2023-05-07T13:13:01;20.33;73.26
63051;SHT30;49136;47.416;19.402;2023-05-07T13:15:27;20.01;76.54
63051;SHT30;49136;47.416;19.402;2023-05-07T13:17:53;19.90;77.60
63051;SHT30;49136;47.416;19.402;2023-05-07T13:20:18;19.47;78.86
63051;SHT30;49136;47.416;19.402;2023-05-07T13:22:44;19.76;80.68
63051;SHT30;49136;47.416;19.402;2023-05-07T13:25:09;19.92;81.23
63051;SHT30;49136;47.416;19.402;2023-05-07T13:27:35;19.99;81.96
63051;SHT30;49136;47.416;19.402;2023-05-07T13:30:03;19.97;81.05
63051;SHT30;49136;47.416;19.402;2023-05-07T13:32:29;20.31;78.35
63051;SHT30;49136;47.416;19.402;2023-05-07T13:34:55;21.21;79.47
63051;SHT30;49136;47.416;19.402;2023-05-07T13:37:20;21.46;74.48
63051;SHT30;49136;47.416;19.402;2023-05-07T13:39:46;21.80;72.29
63051;SHT30;49136;47.416;19.402;2023-05-07T13:42:11;22.14;71.58
63051;SHT30;49136;47.416;19.402;2023-05-07T13:44:36;22.49;67.22
63051;SHT30;49136;47.416;19.402;2023-05-07T13:47:02;23.14;67.21
63051;SHT30;49136;47.416;19.402;2023-05-07T13:49:27;23.39;65.72
63051;SHT30;49136;47.416;19.402;2023-05-07T13:51:53;23.96;63.32
63051;SHT30;49136;47.416;19.402;2023-05-07T13:54:18;24.49;63.76
63051;SHT30;49136;47.416;19.402;2023-05-07T13:56:44;24.61;58.31
63051;SHT30;49136;47.416;19.402;2023-05-07T13:59:09;24.57;59.68
63051;SHT30;49136;47.416;19.402;2023-05-07T14:01:35;23.07;61.15
63051;SHT30;49136;47.416;19.402;2023-05-07T14:04:00;22.88;63.05
63051;SHT30;49136;47.416;19.402;2023-05-07T14:06:26;23.14;62.07
63051;SHT30;49136;47.416;19.402;2023-05-07T14:08:51;23.29;63.43
63051;SHT30;49136;47.416;19.402;2023-05-07T14:11:17;23.84;62.64
63051;SHT30;49136;47.416;19.402;2023-05-07T14:13:42;24.15;59.91
63051;SHT30;49136;47.416;19.402;2023-05-07T14:16:08;24.18;62.39
63051;SHT30;49136;47.416;19.402;2023-05-07T14:18:33;24.53;61.39
63051;SHT30;49136;47.416;19.402;2023-05-07T14:20:59;23.96;61.18
63051;SHT30;49136;47.416;19.402;2023-05-07T14:23:25;23.71;63.74
63051;SHT30;49136;47.416;19.402;2023-05-07T14:25:52;23.73;63.42
63051;SHT30;49136;47.416;19.402;2023-05-07T14:28:18;23.75;62.48
63051;SHT30;49136;47.416;19.402;2023-05-07T14:30:44;23.85;63.65
63051;SHT30;49136;47.416;19.402;2023-05-07T14:33:09;23.78;63.03
63051;SHT30;49136;47.416;19.402;2023-05-07T14:35:34;24.00;62.69
63051;SHT30;49136;47.416;19.402;2023-05-07T14:38:02;24.19;64.15
63051;SHT30;49136;47.416;19.402;2023-05-07T14:40:27;24.66;62.22
63051;SHT30;49136;47.416;19.402;2023-05-07T14:42:53;24.88;61.81
63051;SHT30;49136;47.416;19.402;2023-05-07T14:45:20;24.55;63.47
63051;SHT30;49136;47.416;19.402;2023-05-07T14:47:46;24.44;62.04
63051;SHT30;49136;47.416;19.402;2023-05-07T14:50:11;24.32;62.36
63051;SHT30;49136;47.416;19.402;2023-05-07T14:52:37;23.93;59.75
63051;SHT30;49136;47.416;19.402;2023-05-07T14:55:03;23.71;60.61
63051;SHT30;49136;47.416;19.402;2023-05-07T14:57:28;23.38;61.07
63051;SHT30;49136;47.416;19.402;2023-05-07T14:59:54;23.28;60.22
63051;SHT30;49136;47.416;19.402;2023-05-07T15:02:19;23.49;62.03
63051;SHT30;49136;47.416;19.402;2023-05-07T15:04:45;23.23;60.67
63051;SHT30;49136;47.416;19.402;2023-05-07T15:07:14;23.04;61.20
63051;SHT30;49136;47.416;19.402;2023-05-07T15:09:44;22.97;60.86
63051;SHT30;49136;47.416;19.402;2023-05-07T15:12:10;22.91;60.49
63051;SHT30;49136;47.416;19.402;2023-05-07T15:14:36;23.05;59.84
63051;SHT30;49136;47.416;19.402;2023-05-07T15:17:01;23.30;58.74